createdAt,value
2018-03-06T07:39:51.154Z,24.80
2018-03-06T07:40:50.897Z,31.10
2018-03-06T07:41:50.767Z,29.20
2018-03-06T07:44:14.251Z,27.60
2018-03-06T07:46:38.031Z,30.30
2018-03-06T07:49:01.365Z,28.40
2018-03-06T07:50:02.879Z,29.60
2018-03-06T07:51:10.065Z,30.00
2018-03-06T07:52:55.604Z,30.20
2018-03-06T07:55:18.411Z,31.20
2018-03-06T07:56:27.410Z,29.00
2018-03-06T07:58:13.122Z,29.60
2018-03-06T07:59:13.073Z,29.70
2018-03-06T08:00:12.731Z,31.60
2018-03-06T08:01:21.752Z,28.40
2018-03-06T08:03:35.901Z,30.30
2018-03-06T08:04:36.044Z,28.40
2018-03-06T08:05:35.624Z,28.70
2018-03-06T08:06:35.881Z,28.60
2018-03-06T08:07:36.363Z,31.80
2018-03-06T08:08:35.395Z,32.10
2018-03-06T08:09:35.289Z,32.30
2018-03-06T08:10:35.278Z,31.50
2018-03-06T08:11:35.208Z,27.70
2018-03-06T08:13:58.261Z,30.00
2018-03-06T08:16:21.955Z,29.80
2018-03-06T08:17:21.937Z,30.00
2018-03-06T08:19:44.984Z,29.20
2018-03-06T08:22:08.173Z,29.80
2018-03-06T08:24:30.974Z,29.40
2018-03-06T08:25:40.064Z,27.40
2018-03-06T08:27:25.559Z,29.60
2018-03-06T08:29:49.664Z,28.70
2018-03-06T08:32:13.371Z,27.60
2018-03-06T08:33:11.821Z,26.70
2018-03-06T08:34:47.487Z,26.90
2018-03-06T08:35:11.621Z,26.80
2018-03-06T08:37:35.017Z,28.00
2018-03-06T08:38:34.812Z,27.10
2018-03-06T08:39:34.784Z,28.40
2018-03-06T08:41:58.809Z,28.90
2018-03-06T08:44:23.178Z,28.40
2018-03-06T08:45:21.860Z,26.90
2018-03-06T08:46:21.757Z,25.90
2018-03-06T08:47:21.758Z,29.60
2018-03-06T08:48:23.259Z,25.60
2018-03-06T08:49:30.692Z,27.60
2018-03-06T08:51:16.095Z,27.70
2018-03-06T08:52:16.075Z,25.80
2018-03-06T08:53:15.675Z,26.60
2018-03-06T08:55:38.953Z,28.70
2018-03-06T08:56:47.624Z,26.30
2018-03-06T08:57:38.490Z,30.60
2018-03-06T08:58:48.306Z,26.60
2018-03-06T18:35:00.896Z,19.10
2018-03-06T18:36:02.148Z,21.00
2018-03-06T18:37:00.028Z,21.90
2018-03-06T18:37:59.958Z,22.00
2018-03-06T18:39:01.704Z,20.30
2018-03-06T18:40:00.020Z,20.90
2018-03-06T18:41:01.281Z,21.50
2018-03-06T18:42:01.229Z,21.70
2018-03-06T18:43:02.467Z,21.20
2018-03-06T18:43:59.744Z,20.50
2018-03-06T18:44:59.939Z,22.30
2018-03-06T18:46:01.262Z,22.90
2018-03-06T18:46:59.791Z,22.90
2018-03-06T18:48:02.763Z,24.50
2018-03-06T18:48:59.963Z,23.20
2018-03-06T18:50:05.623Z,21.80
2018-03-06T18:51:00.004Z,22.60
2018-03-06T18:52:02.115Z,23.30
2018-03-06T18:53:04.194Z,21.40
2018-03-06T18:53:59.640Z,20.90
2018-03-06T18:54:58.998Z,20.90
2018-03-06T18:55:59.013Z,22.10
2018-03-06T18:56:59.003Z,20.30
2018-03-06T18:57:59.457Z,20.20
2018-03-06T18:58:59.859Z,19.80
2018-03-06T19:00:00.370Z,21.80
2018-03-06T19:00:58.887Z,19.90
2018-03-06T19:01:58.925Z,20.20
2018-03-06T19:02:59.412Z,20.10
2018-03-06T19:03:58.824Z,19.60
2018-03-06T19:04:58.805Z,20.90
2018-03-06T19:05:59.305Z,21.00
2018-03-06T19:06:59.005Z,21.30
2018-03-06T19:07:58.728Z,21.10
2018-03-06T19:08:58.703Z,21.70
2018-03-06T19:09:58.819Z,21.00
2018-03-06T19:10:58.696Z,21.00
2018-03-06T19:11:58.632Z,21.00
2018-03-06T19:12:58.731Z,20.50
2018-03-06T19:13:58.689Z,21.70
2018-03-06T19:14:58.647Z,21.30
2018-03-06T19:15:58.898Z,21.40
2018-03-06T19:16:58.685Z,21.30
2018-03-06T19:17:58.968Z,21.40
2018-03-06T19:18:58.564Z,20.90
2018-03-06T19:19:58.717Z,22.50
2018-03-06T19:21:08.448Z,22.80
2018-03-06T19:21:58.809Z,23.50
2018-03-06T19:22:58.700Z,24.10
2018-03-06T19:23:58.640Z,21.30
2018-03-06T19:24:58.526Z,22.30
2018-03-06T19:25:58.458Z,25.50
2018-03-06T19:26:58.868Z,25.90
2018-03-06T19:27:58.427Z,31.00
2018-03-06T19:28:58.369Z,23.60
2018-03-06T19:29:58.311Z,26.00
2018-03-06T19:30:58.663Z,23.70
2018-03-06T19:31:58.488Z,23.80
2018-03-06T19:32:58.725Z,21.10
2018-03-06T19:33:58.521Z,21.50
2018-03-06T19:34:58.257Z,22.80
2018-03-06T19:35:58.318Z,21.30
2018-03-06T19:36:58.268Z,22.40
2018-03-06T19:37:58.138Z,23.20
2018-03-06T19:38:58.208Z,23.10
2018-03-06T19:39:58.161Z,23.60
2018-03-06T19:40:58.670Z,26.20
2018-03-06T19:41:58.448Z,28.00
2018-03-06T19:42:58.098Z,24.50
2018-03-06T19:43:58.071Z,25.40
2018-03-06T19:44:58.018Z,25.50
2018-03-06T19:45:58.563Z,28.30
2018-03-06T19:46:57.976Z,29.00
2018-03-06T19:48:00.676Z,27.50
2018-03-06T19:48:59.573Z,26.90
2018-03-06T19:51:33.202Z,23.60
2018-03-06T19:52:32.488Z,23.10
2018-03-06T19:54:29.658Z,23.10
2018-03-06T19:55:26.651Z,23.10
2018-03-06T19:56:27.450Z,28.20
2018-03-06T19:57:28.951Z,30.60
2018-03-06T19:58:28.008Z,30.50
2018-03-06T19:59:25.943Z,28.50
2018-03-06T20:00:25.927Z,29.80
2018-03-06T20:01:27.661Z,28.80
2018-03-06T20:02:27.076Z,27.70
2018-03-06T20:03:28.216Z,27.40
2018-03-06T20:04:28.883Z,27.40
2018-03-06T20:05:25.892Z,26.90
2018-03-06T20:06:26.542Z,28.70
2018-03-06T20:07:25.820Z,27.80
2018-03-06T20:08:25.916Z,26.50
2018-03-06T20:09:25.796Z,27.70
2018-03-06T20:10:26.447Z,28.50
2018-03-06T20:11:26.375Z,27.70
2018-03-06T20:12:25.856Z,27.00
2018-03-06T20:13:25.698Z,25.90
2018-03-06T20:14:25.718Z,29.20
2018-03-06T20:15:25.693Z,26.00
2018-03-06T20:16:25.680Z,26.40
2018-03-06T20:17:26.066Z,25.30
2018-03-06T20:18:25.479Z,26.20
2018-03-06T20:19:25.576Z,24.80
2018-03-06T20:20:26.864Z,24.30
2018-03-06T20:21:25.603Z,23.40
2018-03-06T20:22:29.292Z,25.90
2018-03-06T20:23:29.711Z,24.30
2018-03-06T20:24:25.570Z,24.70
2018-03-06T20:25:25.454Z,25.60
2018-03-06T20:26:25.142Z,25.90
2018-03-06T20:27:24.828Z,25.30
2018-03-06T20:28:24.857Z,24.20
2018-03-06T20:29:25.216Z,25.60
2018-03-06T20:30:24.855Z,25.50
2018-03-06T20:31:25.714Z,24.50
2018-03-06T20:32:24.724Z,23.60
2018-03-06T20:33:24.897Z,24.50
2018-03-06T20:34:25.535Z,24.10
2018-03-06T20:35:28.396Z,25.40
2018-03-06T20:36:24.859Z,28.30
2018-03-06T20:37:24.681Z,26.80
2018-03-06T20:38:26.202Z,28.20
2018-03-06T20:39:25.055Z,27.30
2018-03-06T20:40:25.170Z,27.00
2018-03-06T20:41:24.567Z,26.00
2018-03-06T20:42:25.131Z,26.00
2018-03-06T20:43:24.547Z,25.60
2018-03-06T20:44:24.863Z,24.30
2018-03-06T20:45:24.450Z,25.50
2018-03-06T20:46:24.498Z,24.10
2018-03-06T20:47:24.499Z,24.80
2018-03-06T20:48:24.441Z,25.60
2018-03-06T20:49:25.538Z,24.20
2018-03-06T20:50:24.553Z,24.60
2018-03-06T20:51:24.471Z,25.20
2018-03-06T20:52:24.361Z,24.30
2018-03-06T20:53:24.321Z,25.70
2018-03-06T20:54:24.321Z,25.60
2018-03-06T20:55:25.611Z,25.30
2018-03-06T20:56:24.297Z,26.50
2018-03-06T20:57:24.281Z,27.90
2018-03-06T20:58:25.684Z,27.30
2018-03-06T20:59:25.806Z,25.80
2018-03-06T21:00:24.795Z,24.80
2018-03-06T21:01:27.630Z,24.60
2018-03-06T21:02:25.110Z,25.40
2018-03-06T21:03:25.906Z,25.50
2018-03-06T21:04:30.673Z,26.60
2018-03-06T21:05:25.844Z,25.10
2018-03-06T21:06:24.453Z,27.60
2018-03-06T21:07:24.505Z,26.60
2018-03-06T21:08:24.081Z,26.20
2018-03-06T21:09:24.882Z,27.10
2018-03-06T21:10:28.210Z,27.30
2018-03-06T21:11:24.847Z,27.40
2018-03-06T21:12:36.341Z,25.80
2018-03-06T21:13:26.058Z,26.80
2018-03-06T21:15:59.413Z,27.70
2018-03-06T21:16:59.399Z,27.10
2018-03-06T21:18:00.092Z,27.80
2018-03-06T21:18:58.582Z,29.00
2018-03-06T21:19:59.237Z,28.40
2018-03-06T21:20:59.662Z,31.30
2018-03-06T21:21:59.643Z,30.40
2018-03-06T21:23:00.310Z,31.30
2018-03-06T21:23:58.535Z,30.60
2018-03-06T21:24:59.844Z,30.50
2018-03-06T21:26:00.853Z,29.80
2018-03-06T21:26:59.133Z,29.70
2018-03-06T21:27:58.339Z,30.50
2018-03-06T21:28:58.196Z,30.10
2018-03-06T21:29:58.885Z,29.70
2018-03-06T21:30:58.316Z,30.30
2018-03-06T21:31:59.071Z,30.30
2018-03-06T21:32:58.356Z,31.40
2018-03-06T21:33:59.027Z,29.20
2018-03-06T21:34:57.823Z,31.70
2018-03-06T21:35:57.674Z,30.00
2018-03-06T21:36:57.610Z,31.60
2018-03-06T21:37:58.666Z,30.00
2018-03-06T21:38:57.562Z,30.80
2018-03-06T21:39:57.589Z,31.30
2018-03-06T21:41:01.374Z,30.50
2018-03-06T21:41:58.642Z,31.40
2018-03-06T21:42:57.722Z,30.90
2018-03-06T21:43:58.020Z,31.30
2018-03-06T21:44:57.909Z,31.40
2018-03-06T21:45:57.992Z,31.10
2018-03-06T21:47:04.016Z,31.60
2018-03-06T21:47:57.765Z,30.20
2018-03-06T21:49:00.008Z,33.50
2018-03-06T21:50:17.815Z,31.70
2018-03-06T21:50:57.349Z,32.00
2018-03-06T21:51:57.336Z,32.80
2018-03-06T21:52:57.307Z,31.80
2018-03-06T21:53:57.222Z,32.00
2018-03-06T21:54:57.768Z,30.80
2018-03-06T21:55:57.244Z,32.50
2018-03-06T21:57:01.651Z,30.20
2018-03-06T21:57:59.157Z,30.90
2018-03-06T21:59:01.717Z,30.50
2018-03-06T21:59:57.500Z,30.60
2018-03-06T22:00:57.130Z,29.30
2018-03-06T22:01:57.465Z,30.80
2018-03-06T22:02:59.191Z,30.40
2018-03-06T22:03:57.402Z,31.10
2018-03-06T22:04:57.803Z,29.50
2018-03-06T22:05:57.569Z,29.70
2018-03-06T22:07:00.327Z,32.40
2018-03-06T22:07:59.809Z,30.20
2018-03-06T22:08:57.278Z,30.40
2018-03-06T22:10:00.657Z,32.60
2018-03-06T22:11:00.020Z,34.70
2018-03-06T22:11:57.185Z,34.10
2018-03-06T22:12:56.971Z,33.80
2018-03-06T22:13:57.221Z,33.40
2018-03-06T22:14:57.145Z,34.40
2018-03-06T22:15:57.095Z,34.70
2018-03-06T22:16:56.833Z,34.30
2018-03-06T22:17:57.096Z,37.20
2018-03-06T22:18:57.155Z,31.40
2018-03-06T22:19:56.932Z,34.10
2018-03-06T22:20:56.952Z,32.60
2018-03-06T22:21:57.419Z,33.80
2018-03-06T22:22:56.916Z,34.10
2018-03-06T22:23:56.947Z,36.20
2018-03-06T22:24:56.820Z,36.60
2018-03-06T22:25:56.747Z,39.10
2018-03-06T22:26:56.980Z,35.80
2018-03-06T22:27:56.878Z,37.40
2018-03-06T22:28:56.663Z,37.90
2018-03-06T22:29:56.819Z,38.30
2018-03-06T22:30:56.700Z,39.20
2018-03-06T22:31:56.660Z,37.50
2018-03-06T22:32:58.480Z,37.00
2018-03-06T22:33:56.468Z,38.20
2018-03-06T22:34:56.418Z,35.70
2018-03-06T22:35:56.450Z,41.10
2018-03-06T22:36:56.437Z,39.00
2018-03-06T22:37:56.379Z,39.30
2018-03-06T22:38:56.343Z,38.70
2018-03-06T22:40:11.714Z,39.20
2018-03-06T22:40:56.634Z,40.80
2018-03-06T22:41:56.285Z,42.30
2018-03-06T22:43:01.147Z,43.90
2018-03-06T22:43:56.327Z,44.00
2018-03-06T22:44:56.290Z,40.60
2018-03-06T22:45:56.264Z,41.00
2018-03-06T22:50:37.211Z,39.90
2018-03-06T22:52:07.251Z,41.90
2018-03-06T22:52:28.519Z,42.80
2018-03-06T22:53:40.321Z,38.60
2018-03-06T22:54:28.563Z,38.70
2018-03-06T22:59:29.003Z,44.20
2018-03-06T23:00:09.913Z,41.10
2018-03-06T23:01:09.947Z,42.20
2018-03-06T23:02:12.001Z,41.50
2018-03-06T23:03:27.448Z,44.40
2018-03-06T23:06:10.023Z,43.70
2018-03-06T23:11:53.582Z,43.90
2018-03-06T23:12:47.059Z,44.70
2018-03-06T23:13:41.512Z,43.90
2018-03-06T23:16:15.757Z,39.70
2018-03-06T23:17:21.248Z,38.70
2018-03-06T23:18:15.582Z,38.40
2018-03-06T23:19:21.280Z,39.50
2018-03-06T23:20:15.604Z,38.50
2018-03-06T23:21:15.552Z,40.80
2018-03-06T23:22:44.476Z,42.20
2018-03-06T23:26:59.024Z,41.30
2018-03-06T23:27:58.998Z,39.80
2018-03-06T23:29:14.554Z,40.40
2018-03-06T23:29:58.917Z,38.10
2018-03-06T23:30:59.924Z,37.70
2018-03-06T23:32:00.584Z,40.00
2018-03-06T23:35:27.718Z,39.60
2018-03-06T23:36:10.203Z,39.60
2018-03-06T23:37:28.141Z,39.80
2018-03-06T23:38:28.122Z,40.60
2018-03-06T23:39:10.155Z,39.30
2018-03-06T23:40:10.157Z,40.40
2018-03-06T23:41:10.057Z,38.70
2018-03-06T23:44:07.716Z,38.30
2018-03-06T23:45:10.984Z,37.90
2018-03-06T23:46:41.006Z,39.70
2018-03-06T23:47:13.766Z,39.90
2018-03-06T23:48:07.614Z,38.80
2018-03-06T23:49:07.588Z,39.50
2018-03-06T23:50:07.589Z,38.90
2018-03-06T23:51:07.580Z,38.90
2018-03-06T23:52:09.772Z,38.80
2018-03-06T23:55:18.917Z,42.10
2018-03-06T23:55:41.252Z,39.20
2018-03-06T23:56:49.188Z,40.00
2018-03-06T23:57:41.136Z,44.00
